Latest Weather Observations for Ballera

IDQ60801

Issued at 2:32 am EST Friday 30 September 2016 (issued every 30 minutes, with the page automatically refreshed every 10 minutes)

About weather observations | Map of weather stations | Latest weather observations for QLD | Other Formats
Station Details ID: 045009 Name: BALLERA GAS FIELD Lat: -27.40 Lon: 141.81 Height: 114.5 m
Data from the previous 72 hours. | See also: Recent months at Ballera
Date/Time
EST
Temp
°C
App
Temp
°C
Dew
Point
°C
Rel
Hum
%
Delta-T
°C
Wind Press
QNH
hPa
Press
MSL
hPa
Rain since
9am
mm
Dir  Spd
km/h
Gust
km/h
Spd
kts
Gust
kts
30/02:30am 13.3 6.0 0.0 40 5.6 W 28 39 15 21 1008.7 1008.3 0.0
30/02:00am 12.7 5.9 0.5 43 5.1 W 26 33 14 18 1009.0 1008.6 0.0
30/01:30am 11.6 5.1 0.1 45 4.7 WNW 24 32 13 17 1009.1 1008.7 0.0
30/01:00am 10.9 4.8 0.6 49 4.3 WNW 22 28 12 15 1009.4 1009.1 0.0
30/12:30am 10.8 5.2 0.2 48 4.3 NW 19 22 10 12 1009.5 1009.2 0.0
30/12:00am 12.2 6.0 -0.3 42 5.1 WNW 22 26 12 14 1009.5 1009.2 0.0
 
Date/Time
EST
Temp
°C
App
Temp
°C
Dew
Point
°C
Rel
Hum
%
Delta-T
°C
Wind Press
QNH
hPa
Press
MSL
hPa
Rain since
9am
mm
Dir  Spd
km/h
Gust
km/h
Spd
kts
Gust
kts
29/11:30pm 12.5 6.3 -0.4 41 5.3 W 22 28 12 15 1009.7 1009.4 0.0
29/11:00pm 12.5 6.6 -0.7 40 5.4 W 20 28 11 15 1009.8 1009.5 0.0
29/10:30pm 12.7 6.8 -0.5 40 5.4 W 20 28 11 15 1010.0 1009.7 0.0
29/10:00pm 12.7 7.0 -0.5 40 5.4 W 19 22 10 12 1010.0 1009.7 0.0
29/09:30pm 13.0 7.3 -0.6 39 5.6 W 19 24 10 13 1010.0 1009.7 0.0
29/09:00pm 13.2 7.5 -0.8 38 5.8 W 19 22 10 12 1009.8 1009.5 0.0
29/08:30pm 13.7 7.7 -1.5 35 6.2 W 20 26 11 14 1009.4 1009.1 0.0
29/08:00pm 14.4 7.6 -1.6 33 6.5 W 24 33 13 18 1009.2 1008.9 0.0
29/07:30pm 14.5 8.1 -2.0 32 6.7 W 22 28 12 15 1008.8 1008.4 0.0
29/07:00pm 15.0 7.4 -2.4 30 7.0 W 28 41 15 22 1008.4 1008.0 0.0
29/06:30pm 15.7 7.1 -2.7 28 7.4 W 33 46 18 25 1008.1 1007.7 0.0
29/06:00pm 16.5 6.8 -2.5 27 7.8 W 39 54 21 29 1007.7 1007.3 0.0
29/05:33pm 17.1 7.7 -2.5 26 8.1 W 37 56 20 30 1007.4 1007.0 0.0
29/05:30pm 17.3 7.6 -2.4 26 8.1 W 39 50 21 27 1007.4 1007.0 0.0
29/05:00pm 17.9 7.8 -2.4 25 8.5 W 41 54 22 29 1007.1 1006.7 0.0
29/04:34pm 18.0 7.9 -2.8 24 8.6 W 41 59 22 32 1006.8 1006.4 0.0
29/04:30pm 18.1 7.6 -2.8 24 8.6 W 43 59 23 32 1006.8 1006.4 0.0
29/04:03pm 18.6 8.9 -2.3 24 8.7 W 39 57 21 31 1006.6 1006.2 0.0
29/04:00pm 18.5 8.3 -3.0 23 8.9 W 41 57 22 31 1006.6 1006.2 0.0
29/03:35pm 18.3 8.6 -2.6 24 8.7 W 39 57 21 31 1006.6 1006.2 0.0
29/03:30pm 18.2 7.1 -3.2 23 8.8 W 46 57 25 31 1006.7 1006.3 0.0
29/03:16pm 18.7 8.9 -3.4 22 9.1 W 39 61 21 33 1006.5 1006.1 0.0
29/03:00pm 18.3 7.4 -4.4 21 9.1 W 44 59 24 32 1006.6 1006.2 0.0
29/02:38pm 18.6 8.2 -4.8 20 9.3 W 41 61 22 33 1006.8 1006.4 0.0
29/02:30pm 18.5 7.7 -4.9 20 9.3 W 43 56 23 30 1006.8 1006.4 0.0
29/02:00pm 18.2 7.9 -4.5 21 9.1 W 41 57 22 31 1007.1 1006.7 0.0
29/01:43pm 18.1 8.3 -2.8 24 8.6 WNW 39 57 21 31 1007.3 1006.9 0.0
29/01:30pm 18.2 7.3 -4.5 21 9.0 W 44 57 24 31 1007.4 1007.0 0.0
29/01:00pm 17.9 7.0 -4.1 22 8.8 W 44 65 24 35 1007.8 1007.4 0.0
29/12:34pm 17.8 6.9 -4.2 22 8.8 W 44 63 24 34 1008.4 1008.0 0.0
29/12:30pm 17.2 5.9 -4.1 23 8.5 W 46 57 25 31 1008.4 1008.0 0.0
29/12:00pm 17.3 6.1 -4.0 23 8.5 W 46 59 25 32 1008.9 1008.5 0.0
29/11:39am 17.2 7.3 -3.5 24 8.3 W 39 63 21 34 1008.8 1008.4 0.0
29/11:30am 17.1 6.5 -3.1 25 8.2 W 43 56 23 30 1009.0 1008.6 0.0
29/11:20am 16.6 5.8 -3.5 25 8.0 W 44 63 24 34 1009.1 1008.7 0.0
29/11:00am 16.4 5.5 -4.2 24 8.1 W 44 61 24 33 1009.2 1008.9 0.0
29/10:44am 16.0 5.3 -4.0 25 7.9 W 43 61 23 33 1009.2 1008.9 0.0
29/10:30am 16.1 5.5 -3.4 26 7.8 W 43 59 23 32 1009.1 1008.7 0.0
29/10:27am 15.9 5.7 -3.6 26 7.7 W 41 59 22 32 1009.3 1009.0 0.0
29/10:00am 15.2 4.4 -3.2 28 7.3 W 44 57 24 31 1009.3 1009.0 0.0
29/09:30am 15.3 5.2 -2.2 30 7.1 W 41 59 22 32 1009.4 1009.1 0.0
29/09:21am 15.1 5.0 -2.3 30 7.0 W 41 59 22 32 1009.4 1009.1 0.0
29/09:00am 14.5 4.1 -2.0 32 6.7 W 43 56 23 30 1009.4 1009.1 0.0
29/08:38am 14.3 3.9 -1.7 33 6.5 W 43 61 23 33 1009.4 1009.1 0.0
29/08:30am 13.8 3.1 -2.6 32 6.5 WSW 44 57 24 31 1009.2 1008.9 0.0
29/08:09am 13.7 4.0 -2.3 33 6.4 W 39 57 21 31 1009.1 1008.7 0.0
29/08:00am 13.3 2.8 -2.6 33 6.3 W 43 56 23 30 1009.0 1008.6 0.0
29/07:30am 12.6 4.2 -1.3 38 5.6 W 33 46 18 25 1008.5 1008.1 0.0
29/07:00am 11.9 4.6 -0.3 43 5.0 W 28 39 15 21 1007.9 1007.5 0.0
29/06:30am 11.6 4.7 0.1 45 4.7 W 26 32 14 17 1007.5 1007.1 0.0
29/06:00am 12.3 5.1 0.4 44 5.0 W 28 39 15 21 1007.3 1006.9 0.0
29/05:30am 12.7 4.6 -0.2 41 5.3 WSW 32 39 17 21 1007.2 1006.8 0.0
29/05:00am 13.2 4.1 -0.8 38 5.8 WSW 37 52 20 28 1007.2 1006.8 0.0
29/04:30am 14.3 4.6 0.6 39 5.9 SW 41 59 22 32 1006.7 1006.3 0.0
29/04:09am 15.2 4.8 -0.1 35 6.5 SW 44 65 24 35 1006.2 1005.8 0.0
29/04:00am 15.4 6.2 1.5 39 6.1 SW 39 56 21 30 1006.1 1005.7 0.0
29/03:39am 15.9 6.0 1.6 38 6.3 SW 43 61 23 33 1005.7 1005.3 0.0
29/03:30am 16.2 6.6 3.6 43 5.8 SW 43 57 23 31 1005.6 1005.2 0.0
29/03:00am 16.5 8.8 5.5 48 5.3 WSW 35 56 19 30 1005.0 1004.6 0.0
29/02:57am 16.6 9.0 5.6 48 5.3 WSW 35 56 19 30 1004.9 1004.5 0.0
29/02:30am 16.3 9.7 7.8 57 4.3 WSW 32 44 17 24 1004.6 1004.2 0.0
29/02:00am 15.8 10.9 8.3 61 3.8 WSW 24 30 13 16 1004.5 1004.1 0.0
29/01:45am 15.7 10.0 8.2 61 3.8 WSW 28 46 15 25 1004.6 1004.2 0.0
29/01:30am 17.1 9.2 8.0 55 4.6 WSW 39 50 21 27 1004.5 1004.1 0.0
29/01:20am 18.4 11.9 10.5 60 4.3 W 35 54 19 29 1004.4 1004.0 0.0
29/01:18am 19.8 15.1 14.8 73 2.9 WNW 33 54 18 29 1004.1 1003.7 0.0
29/01:00am 19.9 14.9 15.1 74 2.8 NW 35 46 19 25 1002.9 1002.5 0.0
29/12:30am 19.7 14.4 15.4 76 2.6 NNW 37 48 20 26 1002.5 1002.2 0.0
29/12:00am 19.9 14.2 15.3 75 2.7 NNW 39 54 21 29 1002.3 1002.0 0.0
 
Date/Time
EST
Temp
°C
App
Temp
°C
Dew
Point
°C
Rel
Hum
%
Delta-T
°C
Wind Press
QNH
hPa
Press
MSL
hPa
Rain since
9am
mm
Dir  Spd
km/h
Gust
km/h
Spd
kts
Gust
kts
28/11:46pm 20.0 14.3 15.2 74 2.8 NNW 39 57 21 31 1002.3 1002.0 0.0
28/11:30pm 20.2 14.6 15.4 74 2.9 NNW 39 54 21 29 1002.4 1002.1 0.0
28/11:11pm 20.0 15.6 15.6 76 2.6 NNW 33 52 18 28 1002.3 1002.0 0.0
28/11:00pm 19.8 15.0 15.7 77 2.5 NNW 35 50 19 27 1002.4 1002.1 0.0
28/10:30pm 19.4 14.4 16.1 81 2.0 N 37 52 20 28 1002.2 1001.9 0.0
28/10:00pm 19.6 14.6 16.1 80 2.1 N 37 50 20 27 1002.5 1002.2 0.0
28/09:30pm 19.7 14.7 16.0 79 2.2 N 37 48 20 26 1003.0 1002.6 0.0
28/09:00pm 19.8 15.1 15.9 78 2.3 N 35 48 19 26 1003.3 1002.9 0.0
28/08:30pm 19.9 14.8 15.7 77 2.5 N 37 48 20 26 1003.4 1003.0 0.0
28/08:00pm 20.1 15.9 15.7 76 2.6 N 32 41 17 22 1004.0 1003.6 0.0
28/07:30pm 19.8 16.1 15.9 78 2.3 N 30 37 16 20 1004.4 1004.0 0.0
28/07:00pm 19.6 14.5 15.7 78 2.3 N 37 48 20 26 1004.7 1004.3 0.0
28/06:30pm 19.8 14.2 15.4 76 2.6 N 39 50 21 27 1004.9 1004.5 0.0
28/06:00pm 20.0 14.3 15.2 74 2.9 N 39 50 21 27 1005.1 1004.7 0.0
28/05:30pm 20.6 14.7 14.7 69 3.5 N 39 50 21 27 1005.0 1004.6 0.0
28/05:00pm 20.7 14.7 14.4 67 3.7 N 39 50 21 27 1004.9 1004.5 0.0
28/04:30pm 20.7 14.8 14.6 68 3.6 N 39 50 21 27 1005.6 1005.2 0.0
28/04:00pm 21.1 15.1 14.3 65 4.0 N 39 52 21 28 1005.6 1005.2 0.0
28/03:30pm 21.5 15.9 13.4 60 4.7 N 35 44 19 24 1006.1 1005.7 0.0
28/03:00pm 21.1 16.2 13.8 63 4.3 N 32 44 17 24 1006.7 1006.3 0.0
28/02:30pm 22.6 16.8 12.8 54 5.6 N 35 44 19 24 1007.1 1006.7 0.0
28/02:00pm 23.0 15.7 11.4 48 6.5 NNW 41 52 22 28 1007.6 1007.2 0.0
28/01:30pm 23.9 16.3 9.1 39 8.0 NNW 39 50 21 27 1007.8 1007.4 0.0
28/01:00pm 23.4 17.8 8.7 39 7.9 NNW 28 37 15 20 1008.7 1008.3 0.0
28/12:30pm 23.8 16.9 6.6 33 8.9 NNW 32 41 17 22 1009.1 1008.7 0.0
28/12:00pm 24.2 16.9 5.5 30 9.5 N 33 43 18 23 1009.0 1008.6 0.0
28/11:30am 23.5 17.4 8.4 38 8.1 N 30 35 16 19 1009.6 1009.3 0.0
28/11:00am 23.2 17.1 8.1 38 8.0 N 30 37 16 20 1009.6 1009.3 0.0
28/10:30am 22.2 16.0 9.4 44 6.9 NNE 32 39 17 21 1010.0 1009.7 0.0
28/10:00am 22.0 17.0 10.8 49 6.2 NNE 28 37 15 20 1010.4 1010.1 0.0
28/09:30am 21.5 16.7 10.3 49 6.1 NNE 26 35 14 19 1011.0 1010.7 0.0
28/09:00am 20.1 16.2 10.8 55 5.1 N 22 28 12 15 1011.7 1011.3 0.0
28/08:30am 19.2 14.8 10.5 57 4.7 N 24 28 13 15 1011.9 1011.5 0.0
28/08:00am 18.5 14.0 10.1 58 4.5 N 24 35 13 19 1011.3 1011.0 0.0
28/07:30am 16.9 13.3 10.5 66 3.4 N 20 28 11 15 1011.2 1010.9 0.0
28/07:00am 15.3 13.4 10.5 73 2.5 N 11 15 6 8 1011.4 1011.1 0.0
28/06:30am 14.0 11.8 9.4 74 2.4 N 11 13 6 7 1011.4 1011.1 0.0
28/06:00am 14.1 11.1 9.1 72 2.6 N 15 17 8 9 1011.2 1010.9 0.0
28/05:30am 14.7 11.7 9.3 70 2.8 N 15 19 8 10 1010.9 1010.6 0.0
28/05:00am 13.8 10.6 8.6 71 2.6 N 15 19 8 10 1011.0 1010.7 0.0
28/04:30am 15.0 11.8 8.3 64 3.4 N 15 19 8 10 1010.7 1010.4 0.0
28/04:00am 15.3 12.1 8.3 63 3.6 N 15 19 8 10 1011.1 1010.8 0.0
28/03:30am 14.9 12.3 7.7 62 3.6 N 11 13 6 7 1011.5 1011.2 0.0
28/03:00am 15.7 12.3 7.7 59 4.0 N 15 19 8 10 1011.8 1011.4 0.0
28/02:30am 15.6 12.5 7.4 58 4.1 N 13 15 7 8 1012.1 1011.7 0.0
28/02:00am 15.9 12.4 7.1 56 4.4 N 15 19 8 10 1012.1 1011.7 0.0
28/01:30am 16.2 12.9 6.6 53 4.7 N 13 17 7 9 1012.6 1012.2 0.0
28/01:00am 17.2 13.2 6.7 50 5.2 N 17 19 9 10 1013.3 1012.9 0.0
28/12:30am 17.7 13.7 6.6 48 5.5 N 17 20 9 11 1013.7 1013.3 0.0
28/12:00am 17.7 13.6 6.3 47 5.6 N 17 20 9 11 1013.8 1013.4 0.0
 
Date/Time
EST
Temp
°C
App
Temp
°C
Dew
Point
°C
Rel
Hum
%
Delta-T
°C
Wind Press
QNH
hPa
Press
MSL
hPa
Rain since
9am
mm
Dir  Spd
km/h
Gust
km/h
Spd
kts
Gust
kts
27/11:30pm 17.3 13.7 6.8 50 5.2 N 15 17 8 9 1014.0 1013.6 0.0
27/11:00pm 18.1 14.1 6.6 47 5.7 N 17 19 9 10 1014.2 1013.8 0.0
27/10:30pm 18.8 14.7 6.0 43 6.3 N 17 19 9 10 1014.4 1014.0 0.0
27/10:00pm 19.3 15.2 6.4 43 6.5 N 17 20 9 11 1014.4 1014.0 0.0
27/09:30pm 19.0 15.3 6.5 44 6.3 N 15 17 8 9 1014.5 1014.1 0.0
27/09:00pm 18.9 15.0 5.4 41 6.6 N 15 17 8 9 1014.4 1014.0 0.0
27/08:30pm 20.9 15.9 3.6 32 8.3 N 19 22 10 12 1014.2 1013.8 0.0
27/08:00pm 22.5 17.0 2.1 26 9.6 NNW 20 24 11 13 1014.2 1013.8 0.0
27/07:30pm 23.1 17.5 1.5 24 10.1 NNW 20 26 11 14 1014.0 1013.6 0.0
27/07:00pm 23.9 18.4 0.9 22 10.7 NNW 19 24 10 13 1013.8 1013.4 0.0
27/06:30pm 24.8 19.4 1.0 21 11.2 NNW 19 22 10 12 1013.6 1013.2 0.0
27/06:00pm 25.9 21.0 1.9 21 11.6 NW 17 24 9 13 1013.4 1013.0 0.0
27/05:30pm 26.8 21.3 2.0 20 12.1 NW 20 28 11 15 1013.3 1012.9 0.0
27/05:00pm 27.3 21.7 0.9 18 12.6 NW 20 26 11 14 1013.2 1012.8 0.0
27/04:30pm 27.8 21.8 1.3 18 12.8 NW 22 35 12 19 1013.2 1012.8 0.0
27/04:00pm 27.6 21.1 0.4 17 12.9 NW 24 33 13 18 1013.2 1012.8 0.0
27/03:30pm 28.0 21.9 0.7 17 13.1 NW 22 32 12 17 1013.4 1013.0 0.0
27/03:00pm 28.4 21.2 1.0 17 13.2 NW 28 43 15 23 1013.6 1013.2 0.0
27/02:30pm 28.2 20.9 0.0 16 13.4 NW 28 39 15 21 1013.9 1013.5 0.0
27/02:00pm 27.8 20.7 -1.2 15 13.4 NW 26 37 14 20 1014.3 1013.9 0.0
27/01:30pm 28.0 21.9 0.7 17 13.1 NW 22 33 12 18 1014.7 1014.3 0.0
27/01:00pm 27.5 22.0 1.8 19 12.5 NW 20 32 11 17 1015.2 1014.8 0.0
27/12:30pm 27.4 22.6 4.5 23 11.7 NNW 19 28 10 15 1015.8 1015.4 0.0
27/12:00pm 26.5 21.6 4.3 24 11.2 NW 19 24 10 13 1016.3 1015.9 0.0
27/11:30am 25.7 21.3 4.8 26 10.6 NW 17 26 9 14 1016.9 1016.6 0.0
27/11:00am 26.1 23.0 7.2 30 10.0 NW 13 20 7 11 1017.2 1016.9 0.0
27/10:30am 24.4 20.3 6.2 31 9.4 NW 17 24 9 13 1017.5 1017.2 0.0
27/10:00am 23.4 19.9 7.1 35 8.5 N 15 24 8 13 1017.9 1017.6 0.0
27/09:30am 22.4 18.7 8.1 40 7.6 NNE 17 20 9 11 1017.8 1017.5 0.0
27/09:00am 20.7 17.4 8.0 44 6.6 N 15 19 8 10 1017.5 1017.2 0.0
27/08:30am 19.2 15.0 7.6 47 6.0 N 19 24 10 13 1017.5 1017.2 0.0
27/08:00am 18.3 14.5 7.7 50 5.4 N 17 22 9 12 1017.2 1016.9 0.0
27/07:30am 16.5 13.7 8.5 59 4.1 N 13 15 7 8 1016.9 1016.6 0.0
27/07:00am 15.9 13.0 8.2 60 3.9 NE 13 15 7 8 1016.5 1016.1 0.0
27/06:30am 15.4 12.4 7.7 60 3.9 NE 13 15 7 8 1016.0 1015.6 0.0
27/06:00am 15.5 12.7 7.0 57 4.2 NE 11 13 6 7 1015.9 1015.5 0.0
27/05:30am 15.2 12.1 7.3 59 3.9 NE 13 15 7 8 1015.4 1015.0 0.0
27/05:00am 15.6 12.9 7.4 58 4.1 E 11 13 6 7 1015.2 1014.8 0.0
27/04:30am 15.5 12.7 7.0 57 4.2 E 11 13 6 7 1014.9 1014.5 0.0
27/04:00am 15.6 12.8 6.9 56 4.3 E 11 13 6 7 1014.7 1014.3 0.0
27/03:30am 15.9 13.4 6.6 54 4.6 E 9 11 5 6 1015.0 1014.6 0.0
27/03:00am 15.6 13.2 6.9 56 4.3 E 9 11 5 6 1015.1 1014.7 0.0

Other Formats:

Comma delimited format used in spreadsheet applications
http://www.bom.gov.au/fwo/IDQ60801/IDQ60801.95487.axf

JavaScript Object Notation format (JSON) in row-major order
http://www.bom.gov.au/fwo/IDQ60801/IDQ60801.95487.json